sensor_id;sensor_type;location;lat;lon;timestamp;P1;durP1;ratioP1;P2;durP2;ratioP2
42602;SDS011;28233;55.748;48.752;2023-08-01T00:00:33;3.40;;;1.98;;
42602;SDS011;28233;55.748;48.752;2023-08-01T00:02:37;4.65;;;2.25;;
42602;SDS011;28233;55.748;48.752;2023-08-01T00:04:41;2.83;;;1.92;;
42602;SDS011;28233;55.748;48.752;2023-08-01T00:06:44;3.30;;;2.40;;
42602;SDS011;28233;55.748;48.752;2023-08-01T00:08:46;3.33;;;1.80;;
42602;SDS011;28233;55.748;48.752;2023-08-01T00:10:49;2.90;;;2.00;;
42602;SDS011;28233;55.748;48.752;2023-08-01T00:12:52;3.10;;;2.28;;
42602;SDS011;28233;55.748;48.752;2023-08-01T00:14:55;4.72;;;2.47;;
42602;SDS011;28233;55.748;48.752;2023-08-01T00:16:58;5.05;;;2.10;;
42602;SDS011;28233;55.748;48.752;2023-08-01T00:19:01;2.53;;;2.15;;
42602;SDS011;28233;55.748;48.752;2023-08-01T00:21:04;6.00;;;2.53;;
42602;SDS011;28233;55.748;48.752;2023-08-01T00:23:12;4.57;;;2.13;;
42602;SDS011;28233;55.748;48.752;2023-08-01T00:25:15;4.40;;;2.10;;
42602;SDS011;28233;55.748;48.752;2023-08-01T00:27:18;6.63;;;2.35;;
42602;SDS011;28233;55.748;48.752;2023-08-01T00:29:20;4.78;;;2.72;;
42602;SDS011;28233;55.748;48.752;2023-08-01T00:31:24;4.75;;;2.47;;
42602;SDS011;28233;55.748;48.752;2023-08-01T00:33:26;8.45;;;3.25;;
42602;SDS011;28233;55.748;48.752;2023-08-01T00:35:29;6.85;;;2.80;;
42602;SDS011;28233;55.748;48.752;2023-08-01T00:37:32;4.50;;;2.47;;
42602;SDS011;28233;55.748;48.752;2023-08-01T00:39:34;6.05;;;2.95;;
42602;SDS011;28233;55.748;48.752;2023-08-01T00:41:37;6.57;;;3.47;;
42602;SDS011;28233;55.748;48.752;2023-08-01T00:43:40;7.30;;;3.47;;
42602;SDS011;28233;55.748;48.752;2023-08-01T00:45:43;9.93;;;4.55;;
42602;SDS011;28233;55.748;48.752;2023-08-01T00:47:46;7.82;;;2.58;;
42602;SDS011;28233;55.748;48.752;2023-08-01T00:49:49;11.57;;;4.22;;
42602;SDS011;28233;55.748;48.752;2023-08-01T00:51:52;5.13;;;3.13;;
42602;SDS011;28233;55.748;48.752;2023-08-01T00:53:55;8.70;;;3.65;;
42602;SDS011;28233;55.748;48.752;2023-08-01T00:55:58;6.18;;;3.28;;
42602;SDS011;28233;55.748;48.752;2023-08-01T00:58:01;6.85;;;3.63;;
42602;SDS011;28233;55.748;48.752;2023-08-01T01:00:04;13.82;;;4.95;;
42602;SDS011;28233;55.748;48.752;2023-08-01T01:02:10;9.35;;;4.00;;
42602;SDS011;28233;55.748;48.752;2023-08-01T01:04:14;7.70;;;4.10;;
42602;SDS011;28233;55.748;48.752;2023-08-01T01:06:20;11.43;;;3.80;;
42602;SDS011;28233;55.748;48.752;2023-08-01T01:08:34;6.22;;;2.72;;
42602;SDS011;28233;55.748;48.752;2023-08-01T01:10:37;7.22;;;3.13;;
42602;SDS011;28233;55.748;48.752;2023-08-01T01:12:39;4.60;;;3.10;;
42602;SDS011;28233;55.748;48.752;2023-08-01T01:14:42;5.85;;;2.70;;
42602;SDS011;28233;55.748;48.752;2023-08-01T01:16:45;7.00;;;2.25;;
42602;SDS011;28233;55.748;48.752;2023-08-01T01:18:48;4.13;;;2.30;;
42602;SDS011;28233;55.748;48.752;2023-08-01T01:20:51;3.70;;;2.40;;
42602;SDS011;28233;55.748;48.752;2023-08-01T01:22:53;6.10;;;2.47;;
42602;SDS011;28233;55.748;48.752;2023-08-01T01:24:58;5.75;;;2.80;;
42602;SDS011;28233;55.748;48.752;2023-08-01T01:27:05;5.50;;;3.35;;
42602;SDS011;28233;55.748;48.752;2023-08-01T01:29:10;7.60;;;2.95;;
42602;SDS011;28233;55.748;48.752;2023-08-01T01:31:13;6.47;;;3.72;;
42602;SDS011;28233;55.748;48.752;2023-08-01T01:33:17;7.68;;;2.92;;
42602;SDS011;28233;55.748;48.752;2023-08-01T01:35:20;8.10;;;3.30;;
42602;SDS011;28233;55.748;48.752;2023-08-01T01:37:23;8.30;;;3.78;;
42602;SDS011;28233;55.748;48.752;2023-08-01T01:39:26;6.53;;;3.13;;
42602;SDS011;28233;55.748;48.752;2023-08-01T01:41:28;5.57;;;2.90;;
42602;SDS011;28233;55.748;48.752;2023-08-01T01:43:31;5.25;;;2.65;;
42602;SDS011;28233;55.748;48.752;2023-08-01T01:45:34;7.47;;;2.33;;
42602;SDS011;28233;55.748;48.752;2023-08-01T01:47:37;3.38;;;2.08;;
42602;SDS011;28233;55.748;48.752;2023-08-01T01:49:40;2.78;;;2.00;;
42602;SDS011;28233;55.748;48.752;2023-08-01T01:51:43;4.65;;;2.78;;
42602;SDS011;28233;55.748;48.752;2023-08-01T01:53:45;5.80;;;3.10;;
42602;SDS011;28233;55.748;48.752;2023-08-01T01:55:48;3.67;;;2.58;;
42602;SDS011;28233;55.748;48.752;2023-08-01T01:57:51;3.08;;;2.53;;
42602;SDS011;28233;55.748;48.752;2023-08-01T01:59:54;3.70;;;2.45;;
42602;SDS011;28233;55.748;48.752;2023-08-01T02:01:57;2.75;;;2.20;;
42602;SDS011;28233;55.748;48.752;2023-08-01T02:04:00;10.48;;;2.75;;
42602;SDS011;28233;55.748;48.752;2023-08-01T02:06:02;5.22;;;2.33;;
42602;SDS011;28233;55.748;48.752;2023-08-01T02:08:05;3.85;;;2.75;;
42602;SDS011;28233;55.748;48.752;2023-08-01T02:10:09;7.95;;;2.70;;
42602;SDS011;28233;55.748;48.752;2023-08-01T02:12:12;6.25;;;2.42;;
42602;SDS011;28233;55.748;48.752;2023-08-01T02:14:18;3.30;;;2.40;;
42602;SDS011;28233;55.748;48.752;2023-08-01T02:16:21;6.18;;;2.17;;
42602;SDS011;28233;55.748;48.752;2023-08-01T02:18:24;5.82;;;2.58;;
42602;SDS011;28233;55.748;48.752;2023-08-01T02:20:26;3.83;;;2.70;;
42602;SDS011;28233;55.748;48.752;2023-08-01T02:22:31;3.13;;;2.42;;
42602;SDS011;28233;55.748;48.752;2023-08-01T02:24:34;5.88;;;2.38;;
42602;SDS011;28233;55.748;48.752;2023-08-01T02:26:37;3.58;;;2.67;;
42602;SDS011;28233;55.748;48.752;2023-08-01T02:28:40;2.90;;;2.40;;
42602;SDS011;28233;55.748;48.752;2023-08-01T02:30:43;5.97;;;2.90;;
42602;SDS011;28233;55.748;48.752;2023-08-01T02:32:46;7.30;;;2.88;;
42602;SDS011;28233;55.748;48.752;2023-08-01T02:34:49;4.72;;;2.55;;
42602;SDS011;28233;55.748;48.752;2023-08-01T02:36:51;3.88;;;2.97;;
42602;SDS011;28233;55.748;48.752;2023-08-01T02:38:55;5.65;;;2.90;;
42602;SDS011;28233;55.748;48.752;2023-08-01T02:40:58;4.22;;;3.33;;
42602;SDS011;28233;55.748;48.752;2023-08-01T02:43:01;3.88;;;3.05;;
42602;SDS011;28233;55.748;48.752;2023-08-01T02:45:04;5.47;;;3.22;;
42602;SDS011;28233;55.748;48.752;2023-08-01T02:47:08;5.88;;;2.25;;
42602;SDS011;28233;55.748;48.752;2023-08-01T02:49:10;3.25;;;2.72;;
42602;SDS011;28233;55.748;48.752;2023-08-01T02:51:13;4.03;;;3.00;;
42602;SDS011;28233;55.748;48.752;2023-08-01T02:53:16;5.70;;;3.67;;
42602;SDS011;28233;55.748;48.752;2023-08-01T02:55:18;4.50;;;2.45;;
42602;SDS011;28233;55.748;48.752;2023-08-01T02:57:21;4.30;;;3.10;;
42602;SDS011;28233;55.748;48.752;2023-08-01T02:59:24;5.28;;;2.78;;
42602;SDS011;28233;55.748;48.752;2023-08-01T03:01:27;4.43;;;3.10;;
42602;SDS011;28233;55.748;48.752;2023-08-01T03:03:29;4.53;;;2.35;;
42602;SDS011;28233;55.748;48.752;2023-08-01T03:05:35;9.80;;;3.22;;
42602;SDS011;28233;55.748;48.752;2023-08-01T03:07:38;5.43;;;2.80;;
42602;SDS011;28233;55.748;48.752;2023-08-01T03:09:41;5.25;;;2.90;;
42602;SDS011;28233;55.748;48.752;2023-08-01T03:11:45;4.57;;;2.50;;
42602;SDS011;28233;55.748;48.752;2023-08-01T03:13:48;3.15;;;2.05;;
42602;SDS011;28233;55.748;48.752;2023-08-01T03:15:51;4.20;;;2.95;;
42602;SDS011;28233;55.748;48.752;2023-08-01T03:17:54;3.60;;;2.55;;
42602;SDS011;28233;55.748;48.752;2023-08-01T03:19:56;6.93;;;3.17;;
42602;SDS011;28233;55.748;48.752;2023-08-01T03:21:59;4.35;;;2.90;;
42602;SDS011;28233;55.748;48.752;2023-08-01T03:24:03;4.97;;;3.45;;
42602;SDS011;28233;55.748;48.752;2023-08-01T03:26:11;3.63;;;2.15;;
42602;SDS011;28233;55.748;48.752;2023-08-01T03:28:13;3.78;;;2.47;;
42602;SDS011;28233;55.748;48.752;2023-08-01T03:30:16;5.00;;;2.78;;
42602;SDS011;28233;55.748;48.752;2023-08-01T03:32:19;6.90;;;2.60;;
42602;SDS011;28233;55.748;48.752;2023-08-01T03:34:23;6.95;;;2.58;;
42602;SDS011;28233;55.748;48.752;2023-08-01T03:36:25;7.18;;;2.75;;
42602;SDS011;28233;55.748;48.752;2023-08-01T03:38:28;4.07;;;2.17;;
42602;SDS011;28233;55.748;48.752;2023-08-01T03:40:31;4.45;;;2.75;;
42602;SDS011;28233;55.748;48.752;2023-08-01T03:42:34;6.28;;;3.63;;
42602;SDS011;28233;55.748;48.752;2023-08-01T03:44:37;7.30;;;3.63;;
42602;SDS011;28233;55.748;48.752;2023-08-01T03:46:40;4.35;;;2.53;;
42602;SDS011;28233;55.748;48.752;2023-08-01T03:48:43;5.47;;;2.45;;
42602;SDS011;28233;55.748;48.752;2023-08-01T03:50:46;10.45;;;4.07;;
42602;SDS011;28233;55.748;48.752;2023-08-01T03:52:48;11.52;;;4.15;;
42602;SDS011;28233;55.748;48.752;2023-08-01T03:54:54;6.13;;;3.15;;
42602;SDS011;28233;55.748;48.752;2023-08-01T03:56:57;7.05;;;3.83;;
42602;SDS011;28233;55.748;48.752;2023-08-01T03:59:00;6.68;;;3.30;;
42602;SDS011;28233;55.748;48.752;2023-08-01T04:01:03;6.15;;;3.28;;
42602;SDS011;28233;55.748;48.752;2023-08-01T04:03:06;7.53;;;3.42;;
42602;SDS011;28233;55.748;48.752;2023-08-01T04:05:09;5.93;;;3.35;;
42602;SDS011;28233;55.748;48.752;2023-08-01T04:07:12;6.40;;;3.13;;
42602;SDS011;28233;55.748;48.752;2023-08-01T04:09:15;6.95;;;3.03;;
42602;SDS011;28233;55.748;48.752;2023-08-01T04:11:18;6.80;;;2.80;;
42602;SDS011;28233;55.748;48.752;2023-08-01T04:13:20;3.55;;;2.20;;
42602;SDS011;28233;55.748;48.752;2023-08-01T04:15:23;7.00;;;2.20;;
42602;SDS011;28233;55.748;48.752;2023-08-01T04:17:26;7.05;;;2.50;;
42602;SDS011;28233;55.748;48.752;2023-08-01T04:19:31;4.07;;;2.47;;
42602;SDS011;28233;55.748;48.752;2023-08-01T04:21:33;4.53;;;2.42;;
42602;SDS011;28233;55.748;48.752;2023-08-01T04:23:36;6.65;;;2.63;;
42602;SDS011;28233;55.748;48.752;2023-08-01T04:25:40;4.65;;;2.22;;
42602;SDS011;28233;55.748;48.752;2023-08-01T04:27:43;4.95;;;2.88;;
42602;SDS011;28233;55.748;48.752;2023-08-01T04:29:47;8.68;;;2.40;;
42602;SDS011;28233;55.748;48.752;2023-08-01T04:31:50;4.85;;;2.47;;
42602;SDS011;28233;55.748;48.752;2023-08-01T04:33:53;6.40;;;2.38;;
42602;SDS011;28233;55.748;48.752;2023-08-01T04:35:55;2.72;;;2.00;;
42602;SDS011;28233;55.748;48.752;2023-08-01T04:37:58;4.22;;;2.10;;
42602;SDS011;28233;55.748;48.752;2023-08-01T04:40:01;4.53;;;2.50;;
42602;SDS011;28233;55.748;48.752;2023-08-01T04:42:08;3.75;;;1.90;;
42602;SDS011;28233;55.748;48.752;2023-08-01T04:44:11;2.70;;;1.70;;
42602;SDS011;28233;55.748;48.752;2023-08-01T04:46:14;2.70;;;1.58;;
42602;SDS011;28233;55.748;48.752;2023-08-01T04:48:16;3.22;;;1.65;;
42602;SDS011;28233;55.748;48.752;2023-08-01T04:50:19;3.75;;;2.05;;
42602;SDS011;28233;55.748;48.752;2023-08-01T04:52:22;4.88;;;1.65;;
42602;SDS011;28233;55.748;48.752;2023-08-01T04:54:25;1.83;;;1.42;;
42602;SDS011;28233;55.748;48.752;2023-08-01T04:56:28;1.50;;;1.00;;
42602;SDS011;28233;55.748;48.752;2023-08-01T04:58:31;3.50;;;1.30;;
42602;SDS011;28233;55.748;48.752;2023-08-01T05:00:33;1.95;;;1.40;;
42602;SDS011;28233;55.748;48.752;2023-08-01T05:02:36;1.40;;;1.10;;
42602;SDS011;28233;55.748;48.752;2023-08-01T05:04:40;2.30;;;1.08;;
42602;SDS011;28233;55.748;48.752;2023-08-01T05:06:42;1.27;;;0.98;;
42602;SDS011;28233;55.748;48.752;2023-08-01T05:08:45;2.63;;;1.15;;
42602;SDS011;28233;55.748;48.752;2023-08-01T05:10:48;1.10;;;0.70;;
42602;SDS011;28233;55.748;48.752;2023-08-01T05:12:51;2.05;;;1.40;;
42602;SDS011;28233;55.748;48.752;2023-08-01T05:14:54;1.15;;;0.88;;
42602;SDS011;28233;55.748;48.752;2023-08-01T05:16:57;1.35;;;1.10;;
42602;SDS011;28233;55.748;48.752;2023-08-01T05:18:59;2.50;;;1.20;;
42602;SDS011;28233;55.748;48.752;2023-08-01T05:21:02;3.28;;;1.33;;
42602;SDS011;28233;55.748;48.752;2023-08-01T05:23:05;4.38;;;1.15;;
42602;SDS011;28233;55.748;48.752;2023-08-01T05:25:08;2.15;;;1.30;;
42602;SDS011;28233;55.748;48.752;2023-08-01T05:27:11;3.13;;;1.40;;
42602;SDS011;28233;55.748;48.752;2023-08-01T05:29:13;3.45;;;1.30;;
42602;SDS011;28233;55.748;48.752;2023-08-01T05:31:16;2.75;;;1.58;;
42602;SDS011;28233;55.748;48.752;2023-08-01T05:33:19;5.97;;;1.50;;
42602;SDS011;28233;55.748;48.752;2023-08-01T05:35:22;2.70;;;1.20;;
42602;SDS011;28233;55.748;48.752;2023-08-01T05:37:24;2.13;;;1.42;;
42602;SDS011;28233;55.748;48.752;2023-08-01T05:39:27;3.42;;;1.67;;
42602;SDS011;28233;55.748;48.752;2023-08-01T05:41:30;4.20;;;1.75;;
42602;SDS011;28233;55.748;48.752;2023-08-01T05:43:33;3.75;;;1.98;;
42602;SDS011;28233;55.748;48.752;2023-08-01T05:45:36;3.47;;;1.77;;
42602;SDS011;28233;55.748;48.752;2023-08-01T05:47:38;3.97;;;1.70;;
42602;SDS011;28233;55.748;48.752;2023-08-01T05:49:42;2.75;;;1.50;;
42602;SDS011;28233;55.748;48.752;2023-08-01T05:51:45;10.05;;;2.30;;
42602;SDS011;28233;55.748;48.752;2023-08-01T05:53:48;4.65;;;2.42;;
42602;SDS011;28233;55.748;48.752;2023-08-01T05:55:51;7.90;;;3.10;;
42602;SDS011;28233;55.748;48.752;2023-08-01T05:57:54;5.28;;;2.22;;
42602;SDS011;28233;55.748;48.752;2023-08-01T05:59:57;5.75;;;2.20;;
42602;SDS011;28233;55.748;48.752;2023-08-01T06:02:00;5.10;;;2.55;;
42602;SDS011;28233;55.748;48.752;2023-08-01T06:04:03;5.18;;;2.58;;
42602;SDS011;28233;55.748;48.752;2023-08-01T06:06:06;4.70;;;2.40;;
42602;SDS011;28233;55.748;48.752;2023-08-01T06:08:09;4.40;;;2.40;;
42602;SDS011;28233;55.748;48.752;2023-08-01T06:10:11;3.60;;;1.77;;
42602;SDS011;28233;55.748;48.752;2023-08-01T06:12:14;2.53;;;1.45;;
42602;SDS011;28233;55.748;48.752;2023-08-01T06:14:17;3.17;;;1.95;;
42602;SDS011;28233;55.748;48.752;2023-08-01T06:16:20;4.15;;;1.95;;
42602;SDS011;28233;55.748;48.752;2023-08-01T06:18:23;5.30;;;2.33;;
42602;SDS011;28233;55.748;48.752;2023-08-01T06:20:25;3.40;;;2.13;;
42602;SDS011;28233;55.748;48.752;2023-08-01T06:22:28;3.63;;;1.90;;
42602;SDS011;28233;55.748;48.752;2023-08-01T06:24:31;4.85;;;1.98;;
42602;SDS011;28233;55.748;48.752;2023-08-01T06:26:34;5.38;;;2.47;;
42602;SDS011;28233;55.748;48.752;2023-08-01T06:28:37;3.88;;;2.22;;
42602;SDS011;28233;55.748;48.752;2023-08-01T06:30:40;4.20;;;2.05;;
42602;SDS011;28233;55.748;48.752;2023-08-01T06:32:42;7.05;;;2.63;;
42602;SDS011;28233;55.748;48.752;2023-08-01T06:34:45;5.10;;;1.77;;
42602;SDS011;28233;55.748;48.752;2023-08-01T06:36:48;6.32;;;1.92;;
42602;SDS011;28233;55.748;48.752;2023-08-01T06:38:51;7.00;;;2.40;;
42602;SDS011;28233;55.748;48.752;2023-08-01T06:40:54;3.72;;;1.70;;
42602;SDS011;28233;55.748;48.752;2023-08-01T06:42:57;5.10;;;1.73;;
42602;SDS011;28233;55.748;48.752;2023-08-01T06:44:59;3.42;;;1.73;;
42602;SDS011;28233;55.748;48.752;2023-08-01T06:47:05;3.00;;;1.60;;
42602;SDS011;28233;55.748;48.752;2023-08-01T06:49:08;6.88;;;2.10;;
42602;SDS011;28233;55.748;48.752;2023-08-01T06:51:11;4.45;;;1.92;;
42602;SDS011;28233;55.748;48.752;2023-08-01T06:53:14;3.25;;;1.98;;
42602;SDS011;28233;55.748;48.752;2023-08-01T06:55:17;3.47;;;1.77;;
42602;SDS011;28233;55.748;48.752;2023-08-01T06:57:21;4.88;;;2.47;;
42602;SDS011;28233;55.748;48.752;2023-08-01T06:59:23;4.80;;;2.30;;
42602;SDS011;28233;55.748;48.752;2023-08-01T07:01:26;5.57;;;1.88;;
42602;SDS011;28233;55.748;48.752;2023-08-01T07:03:29;4.55;;;1.80;;
42602;SDS011;28233;55.748;48.752;2023-08-01T07:05:32;3.97;;;2.40;;
42602;SDS011;28233;55.748;48.752;2023-08-01T07:07:35;3.42;;;2.10;;
42602;SDS011;28233;55.748;48.752;2023-08-01T07:09:38;4.25;;;2.28;;
42602;SDS011;28233;55.748;48.752;2023-08-01T07:11:40;1.55;;;1.20;;
42602;SDS011;28233;55.748;48.752;2023-08-01T07:13:43;2.13;;;1.45;;
42602;SDS011;28233;55.748;48.752;2023-08-01T07:15:46;3.60;;;1.70;;
42602;SDS011;28233;55.748;48.752;2023-08-01T07:17:49;6.00;;;1.35;;
42602;SDS011;28233;55.748;48.752;2023-08-01T07:19:52;2.50;;;1.27;;
42602;SDS011;28233;55.748;48.752;2023-08-01T07:21:57;2.30;;;1.13;;
42602;SDS011;28233;55.748;48.752;2023-08-01T07:24:00;2.05;;;1.20;;
42602;SDS011;28233;55.748;48.752;2023-08-01T07:26:03;2.00;;;1.40;;
42602;SDS011;28233;55.748;48.752;2023-08-01T07:28:06;2.78;;;1.70;;
42602;SDS011;28233;55.748;48.752;2023-08-01T07:30:09;2.92;;;1.63;;
42602;SDS011;28233;55.748;48.752;2023-08-01T07:32:14;2.00;;;1.20;;
42602;SDS011;28233;55.748;48.752;2023-08-01T07:34:17;2.28;;;1.52;;
42602;SDS011;28233;55.748;48.752;2023-08-01T07:36:20;1.85;;;1.50;;
42602;SDS011;28233;55.748;48.752;2023-08-01T07:38:24;6.10;;;1.92;;
42602;SDS011;28233;55.748;48.752;2023-08-01T07:40:27;2.90;;;1.90;;
42602;SDS011;28233;55.748;48.752;2023-08-01T07:42:30;2.70;;;1.63;;
42602;SDS011;28233;55.748;48.752;2023-08-01T07:44:32;3.08;;;2.05;;
42602;SDS011;28233;55.748;48.752;2023-08-01T07:46:38;6.72;;;1.67;;
42602;SDS011;28233;55.748;48.752;2023-08-01T07:48:41;2.92;;;1.88;;
42602;SDS011;28233;55.748;48.752;2023-08-01T07:50:44;2.03;;;1.63;;
42602;SDS011;28233;55.748;48.752;2023-08-01T07:52:47;4.18;;;1.30;;
42602;SDS011;28233;55.748;48.752;2023-08-01T07:54:50;2.78;;;1.40;;
42602;SDS011;28233;55.748;48.752;2023-08-01T07:56:55;2.35;;;1.38;;
42602;SDS011;28233;55.748;48.752;2023-08-01T07:58:58;2.45;;;1.45;;
42602;SDS011;28233;55.748;48.752;2023-08-01T08:01:07;3.80;;;1.58;;
42602;SDS011;28233;55.748;48.752;2023-08-01T08:03:10;4.10;;;1.90;;
42602;SDS011;28233;55.748;48.752;2023-08-01T08:05:13;4.70;;;2.42;;
42602;SDS011;28233;55.748;48.752;2023-08-01T08:07:16;3.35;;;1.98;;
42602;SDS011;28233;55.748;48.752;2023-08-01T08:09:19;6.95;;;1.65;;
42602;SDS011;28233;55.748;48.752;2023-08-01T08:11:21;5.90;;;2.22;;
42602;SDS011;28233;55.748;48.752;2023-08-01T08:13:25;4.68;;;1.55;;
42602;SDS011;28233;55.748;48.752;2023-08-01T08:15:28;2.30;;;1.70;;
42602;SDS011;28233;55.748;48.752;2023-08-01T08:17:36;3.90;;;1.80;;
42602;SDS011;28233;55.748;48.752;2023-08-01T08:19:39;3.60;;;1.88;;
42602;SDS011;28233;55.748;48.752;2023-08-01T08:21:42;2.40;;;1.67;;
42602;SDS011;28233;55.748;48.752;2023-08-01T08:23:45;3.17;;;1.50;;
42602;SDS011;28233;55.748;48.752;2023-08-01T08:25:48;2.47;;;1.63;;
42602;SDS011;28233;55.748;48.752;2023-08-01T08:27:52;2.15;;;1.70;;
42602;SDS011;28233;55.748;48.752;2023-08-01T08:29:54;2.38;;;1.60;;
42602;SDS011;28233;55.748;48.752;2023-08-01T08:31:57;2.30;;;1.58;;
42602;SDS011;28233;55.748;48.752;2023-08-01T08:34:00;7.25;;;1.77;;
42602;SDS011;28233;55.748;48.752;2023-08-01T08:36:03;3.28;;;1.67;;
42602;SDS011;28233;55.748;48.752;2023-08-01T08:38:06;2.65;;;1.50;;
42602;SDS011;28233;55.748;48.752;2023-08-01T08:40:09;2.30;;;1.40;;
42602;SDS011;28233;55.748;48.752;2023-08-01T08:42:14;1.58;;;1.48;;
42602;SDS011;28233;55.748;48.752;2023-08-01T08:44:21;1.60;;;1.17;;
42602;SDS011;28233;55.748;48.752;2023-08-01T08:46:28;2.42;;;1.73;;
42602;SDS011;28233;55.748;48.752;2023-08-01T08:48:32;5.13;;;1.35;;
42602;SDS011;28233;55.748;48.752;2023-08-01T08:50:37;5.63;;;2.17;;
42602;SDS011;28233;55.748;48.752;2023-08-01T08:52:40;3.58;;;1.38;;
42602;SDS011;28233;55.748;48.752;2023-08-01T08:54:43;2.97;;;1.50;;
42602;SDS011;28233;55.748;48.752;2023-08-01T08:56:47;5.20;;;2.03;;
42602;SDS011;28233;55.748;48.752;2023-08-01T08:58:51;2.75;;;1.98;;
42602;SDS011;28233;55.748;48.752;2023-08-01T09:00:54;2.28;;;1.60;;
42602;SDS011;28233;55.748;48.752;2023-08-01T09:02:57;4.18;;;2.00;;
42602;SDS011;28233;55.748;48.752;2023-08-01T09:05:00;13.40;;;2.60;;
42602;SDS011;28233;55.748;48.752;2023-08-01T09:07:07;2.40;;;1.50;;
42602;SDS011;28233;55.748;48.752;2023-08-01T09:09:13;3.45;;;1.60;;
42602;SDS011;28233;55.748;48.752;2023-08-01T09:11:17;2.28;;;1.40;;
42602;SDS011;28233;55.748;48.752;2023-08-01T09:13:20;2.90;;;1.67;;
42602;SDS011;28233;55.748;48.752;2023-08-01T09:15:25;1.98;;;1.23;;
42602;SDS011;28233;55.748;48.752;2023-08-01T09:17:30;1.95;;;1.33;;
42602;SDS011;28233;55.748;48.752;2023-08-01T09:19:32;4.22;;;1.95;;
42602;SDS011;28233;55.748;48.752;2023-08-01T09:21:36;5.40;;;1.60;;
42602;SDS011;28233;55.748;48.752;2023-08-01T09:23:41;3.10;;;1.52;;
42602;SDS011;28233;55.748;48.752;2023-08-01T09:25:44;1.45;;;0.95;;
42602;SDS011;28233;55.748;48.752;2023-08-01T09:27:47;2.97;;;1.13;;
42602;SDS011;28233;55.748;48.752;2023-08-01T09:29:49;2.50;;;1.63;;
42602;SDS011;28233;55.748;48.752;2023-08-01T09:31:52;2.28;;;1.13;;
42602;SDS011;28233;55.748;48.752;2023-08-01T09:33:57;3.78;;;1.52;;
42602;SDS011;28233;55.748;48.752;2023-08-01T09:36:00;2.53;;;1.40;;
42602;SDS011;28233;55.748;48.752;2023-08-01T09:38:05;2.80;;;1.85;;
42602;SDS011;28233;55.748;48.752;2023-08-01T09:40:08;4.55;;;1.55;;
42602;SDS011;28233;55.748;48.752;2023-08-01T09:42:12;5.88;;;1.52;;
42602;SDS011;28233;55.748;48.752;2023-08-01T09:44:15;3.17;;;1.63;;
42602;SDS011;28233;55.748;48.752;2023-08-01T09:46:22;3.17;;;1.30;;
42602;SDS011;28233;55.748;48.752;2023-08-01T09:48:26;4.00;;;1.58;;
42602;SDS011;28233;55.748;48.752;2023-08-01T09:50:29;2.70;;;1.45;;
42602;SDS011;28233;55.748;48.752;2023-08-01T09:52:32;2.72;;;1.50;;
42602;SDS011;28233;55.748;48.752;2023-08-01T09:54:35;3.05;;;1.83;;
42602;SDS011;28233;55.748;48.752;2023-08-01T09:56:38;3.25;;;1.55;;
42602;SDS011;28233;55.748;48.752;2023-08-01T09:58:46;3.05;;;1.10;;
42602;SDS011;28233;55.748;48.752;2023-08-01T10:00:50;5.68;;;1.27;;
42602;SDS011;28233;55.748;48.752;2023-08-01T10:02:54;3.55;;;1.38;;
42602;SDS011;28233;55.748;48.752;2023-08-01T10:04:59;2.85;;;1.27;;
42602;SDS011;28233;55.748;48.752;2023-08-01T10:07:08;3.40;;;1.30;;
42602;SDS011;28233;55.748;48.752;2023-08-01T10:09:14;3.15;;;1.38;;
42602;SDS011;28233;55.748;48.752;2023-08-01T10:11:19;4.45;;;1.77;;
42602;SDS011;28233;55.748;48.752;2023-08-01T10:13:23;3.58;;;1.85;;
42602;SDS011;28233;55.748;48.752;2023-08-01T10:15:28;3.15;;;1.80;;
42602;SDS011;28233;55.748;48.752;2023-08-01T10:17:31;1.73;;;1.13;;
42602;SDS011;28233;55.748;48.752;2023-08-01T10:19:36;4.88;;;1.95;;
42602;SDS011;28233;55.748;48.752;2023-08-01T10:21:43;3.17;;;1.42;;
42602;SDS011;28233;55.748;48.752;2023-08-01T10:23:46;3.75;;;1.70;;
42602;SDS011;28233;55.748;48.752;2023-08-01T10:25:50;3.53;;;1.90;;
42602;SDS011;28233;55.748;48.752;2023-08-01T10:28:02;3.30;;;1.63;;
42602;SDS011;28233;55.748;48.752;2023-08-01T10:30:08;3.47;;;1.90;;
42602;SDS011;28233;55.748;48.752;2023-08-01T10:32:12;3.25;;;1.52;;
42602;SDS011;28233;55.748;48.752;2023-08-01T10:34:15;1.65;;;1.17;;
42602;SDS011;28233;55.748;48.752;2023-08-01T10:36:23;2.78;;;1.60;;
42602;SDS011;28233;55.748;48.752;2023-08-01T10:38:29;2.03;;;1.35;;
42602;SDS011;28233;55.748;48.752;2023-08-01T10:40:35;5.95;;;2.00;;
42602;SDS011;28233;55.748;48.752;2023-08-01T10:42:43;5.55;;;1.75;;
42602;SDS011;28233;55.748;48.752;2023-08-01T10:44:47;5.30;;;1.65;;
42602;SDS011;28233;55.748;48.752;2023-08-01T10:46:52;2.60;;;1.90;;
42602;SDS011;28233;55.748;48.752;2023-08-01T10:48:57;4.22;;;1.80;;
42602;SDS011;28233;55.748;48.752;2023-08-01T10:50:59;6.50;;;2.30;;
42602;SDS011;28233;55.748;48.752;2023-08-01T10:53:05;4.20;;;1.25;;
42602;SDS011;28233;55.748;48.752;2023-08-01T10:55:12;5.97;;;2.35;;
42602;SDS011;28233;55.748;48.752;2023-08-01T10:57:18;4.60;;;1.95;;
42602;SDS011;28233;55.748;48.752;2023-08-01T10:59:21;3.22;;;2.00;;
42602;SDS011;28233;55.748;48.752;2023-08-01T11:01:24;5.88;;;1.85;;
42602;SDS011;28233;55.748;48.752;2023-08-01T11:03:33;4.70;;;2.40;;
42602;SDS011;28233;55.748;48.752;2023-08-01T11:05:40;6.78;;;2.42;;
42602;SDS011;28233;55.748;48.752;2023-08-01T11:07:52;3.92;;;1.98;;
42602;SDS011;28233;55.748;48.752;2023-08-01T11:10:10;3.05;;;1.83;;
42602;SDS011;28233;55.748;48.752;2023-08-01T11:12:15;5.32;;;1.77;;
42602;SDS011;28233;55.748;48.752;2023-08-01T11:14:27;6.32;;;2.20;;
42602;SDS011;28233;55.748;48.752;2023-08-01T11:16:31;5.38;;;1.85;;
42602;SDS011;28233;55.748;48.752;2023-08-01T11:18:40;3.55;;;2.08;;
42602;SDS011;28233;55.748;48.752;2023-08-01T11:20:46;3.03;;;2.20;;
42602;SDS011;28233;55.748;48.752;2023-08-01T11:22:56;3.55;;;1.77;;
42602;SDS011;28233;55.748;48.752;2023-08-01T11:25:03;5.68;;;2.25;;
42602;SDS011;28233;55.748;48.752;2023-08-01T11:27:07;3.40;;;1.85;;
42602;SDS011;28233;55.748;48.752;2023-08-01T11:29:12;2.97;;;1.50;;
42602;SDS011;28233;55.748;48.752;2023-08-01T11:31:16;3.28;;;1.42;;
42602;SDS011;28233;55.748;48.752;2023-08-01T11:33:20;4.38;;;1.77;;
42602;SDS011;28233;55.748;48.752;2023-08-01T11:35:24;2.50;;;1.40;;
42602;SDS011;28233;55.748;48.752;2023-08-01T11:37:27;2.42;;;1.55;;
42602;SDS011;28233;55.748;48.752;2023-08-01T11:39:30;1.45;;;1.13;;
42602;SDS011;28233;55.748;48.752;2023-08-01T11:41:33;3.65;;;1.35;;
42602;SDS011;28233;55.748;48.752;2023-08-01T11:43:42;1.02;;;0.80;;
42602;SDS011;28233;55.748;48.752;2023-08-01T11:45:52;1.08;;;0.98;;
42602;SDS011;28233;55.748;48.752;2023-08-01T11:47:57;6.13;;;0.82;;
42602;SDS011;28233;55.748;48.752;2023-08-01T11:50:00;2.35;;;1.05;;
42602;SDS011;28233;55.748;48.752;2023-08-01T11:52:03;2.50;;;1.10;;
42602;SDS011;28233;55.748;48.752;2023-08-01T11:54:06;5.22;;;1.30;;
42602;SDS011;28233;55.748;48.752;2023-08-01T11:56:19;1.38;;;0.93;;
42602;SDS011;28233;55.748;48.752;2023-08-01T12:00:43;1.50;;;0.85;;
42602;SDS011;28233;55.748;48.752;2023-08-01T12:02:46;3.28;;;1.50;;
42602;SDS011;28233;55.748;48.752;2023-08-01T12:04:49;2.10;;;1.10;;
42602;SDS011;28233;55.748;48.752;2023-08-01T12:06:53;2.42;;;1.58;;
42602;SDS011;28233;55.748;48.752;2023-08-01T12:09:05;2.17;;;1.13;;
42602;SDS011;28233;55.748;48.752;2023-08-01T12:11:22;4.28;;;1.10;;
42602;SDS011;28233;55.748;48.752;2023-08-01T12:13:26;3.13;;;1.08;;
42602;SDS011;28233;55.748;48.752;2023-08-01T12:15:29;1.23;;;0.77;;